createdAt,value
2023-02-04T00:00:22.867Z,4.23
2023-02-04T00:02:50.444Z,4.24
2023-02-04T00:05:18.729Z,4.25
2023-02-04T00:07:45.461Z,4.24
2023-02-04T00:10:12.339Z,4.14
2023-02-04T00:12:39.449Z,4.24
2023-02-04T00:15:06.756Z,4.23
2023-02-04T00:17:33.575Z,4.28
2023-02-04T00:20:00.321Z,4.34
2023-02-04T00:22:29.048Z,4.32
2023-02-04T00:24:56.016Z,4.26
2023-02-04T00:27:23.395Z,4.36
2023-02-04T00:29:50.171Z,4.33
2023-02-04T00:32:17.019Z,4.36
2023-02-04T00:34:43.883Z,4.33
2023-02-04T00:37:10.552Z,4.33
2023-02-04T00:39:38.321Z,4.34
2023-02-04T00:42:06.390Z,4.35
2023-02-04T00:44:36.655Z,4.30
2023-02-04T00:47:04.167Z,4.28
2023-02-04T00:49:30.992Z,4.32
2023-02-04T00:51:57.918Z,4.34
2023-02-04T00:54:26.012Z,4.34
2023-02-04T00:56:52.665Z,4.37
2023-02-04T00:59:19.487Z,4.26
2023-02-04T01:01:46.316Z,4.33
2023-02-04T01:04:15.074Z,4.42
2023-02-04T01:06:42.124Z,4.43
2023-02-04T01:09:10.160Z,4.38
2023-02-04T01:11:36.886Z,4.39
2023-02-04T01:14:03.636Z,4.43
2023-02-04T01:16:30.402Z,4.39
2023-02-04T01:18:57.201Z,4.44
2023-02-04T01:21:24.633Z,4.40
2023-02-04T01:23:51.787Z,4.40
2023-02-04T01:26:19.768Z,4.33
2023-02-04T01:28:47.478Z,4.27
2023-02-04T01:31:14.870Z,4.30
2023-02-04T01:33:41.818Z,4.19
2023-02-04T01:36:09.108Z,4.27
2023-02-04T01:38:35.781Z,4.24
2023-02-04T01:41:04.116Z,4.26
2023-02-04T01:43:31.656Z,4.24
2023-02-04T01:45:59.124Z,4.29
2023-02-04T01:48:26.137Z,4.27
2023-02-04T01:51:03.920Z,4.26
2023-02-04T01:53:31.403Z,4.21
2023-02-04T01:55:58.130Z,4.15
2023-02-04T01:58:25.331Z,4.13
2023-02-04T02:00:52.110Z,4.20
2023-02-04T02:03:19.074Z,4.17
2023-02-04T02:05:49.690Z,4.20
2023-02-04T02:08:17.103Z,4.14
2023-02-04T02:10:46.895Z,4.11
2023-02-04T02:13:17.542Z,4.14
2023-02-04T02:15:45.141Z,4.14
2023-02-04T02:18:12.847Z,4.14
2023-02-04T02:20:39.757Z,4.12
2023-02-04T02:23:26.571Z,4.12
2023-02-04T02:25:53.565Z,4.09
2023-02-04T02:28:23.282Z,4.05
2023-02-04T02:30:51.201Z,4.03
2023-02-04T02:33:20.200Z,4.01
2023-02-04T02:35:50.655Z,4.01
2023-02-04T02:38:19.181Z,3.98
2023-02-04T02:40:46.610Z,3.94
2023-02-04T02:43:21.770Z,4.01
2023-02-04T02:45:49.401Z,3.91
2023-02-04T02:48:17.240Z,3.99
2023-02-04T02:50:45.253Z,3.95
2023-02-04T02:53:14.161Z,3.93
2023-02-04T02:55:42.362Z,3.93
2023-02-04T02:58:28.572Z,3.93
2023-02-04T03:00:57.475Z,3.90
2023-02-04T03:03:28.301Z,3.84
2023-02-04T03:06:01.363Z,3.99
2023-02-04T03:08:28.753Z,3.95
2023-02-04T03:10:55.835Z,3.99
2023-02-04T03:13:22.913Z,4.04
2023-02-04T03:15:50.042Z,4.03
2023-02-04T03:18:19.527Z,3.98
2023-02-04T03:20:47.452Z,3.98
2023-02-04T03:23:14.197Z,3.93
2023-02-04T03:25:42.011Z,3.94
2023-02-04T03:28:09.477Z,3.91
2023-02-04T03:30:36.708Z,3.93
2023-02-04T03:33:03.615Z,3.88
2023-02-04T03:35:30.272Z,3.89
2023-02-04T03:37:57.001Z,3.87
2023-02-04T03:40:23.582Z,3.79
2023-02-04T03:42:50.326Z,3.78
2023-02-04T03:45:17.060Z,3.74
2023-02-04T03:47:43.730Z,3.71
2023-02-04T03:50:12.443Z,3.73
2023-02-04T03:52:40.013Z,3.70
2023-02-04T03:55:07.215Z,3.73
2023-02-04T03:57:33.905Z,3.71
2023-02-04T04:00:00.539Z,3.72
2023-02-04T04:02:27.310Z,3.71
2023-02-04T04:04:54.027Z,3.73
2023-02-04T04:07:20.638Z,3.76
2023-02-04T04:09:47.242Z,3.77
2023-02-04T04:12:13.874Z,3.76
2023-02-04T04:14:40.486Z,3.77
2023-02-04T04:17:07.189Z,3.75
2023-02-04T04:19:33.858Z,3.72
2023-02-04T04:22:00.509Z,3.70
2023-02-04T04:24:27.131Z,3.67
2023-02-04T04:26:53.826Z,3.59
2023-02-04T04:29:20.431Z,3.52
2023-02-04T04:31:47.164Z,3.44
2023-02-04T04:34:13.988Z,3.35
2023-02-04T04:36:40.755Z,3.26
2023-02-04T04:39:07.396Z,3.20
2023-02-04T04:41:34.101Z,3.11
2023-02-04T04:44:00.778Z,3.06
2023-02-04T04:46:27.489Z,2.97
2023-02-04T04:48:54.096Z,2.90
2023-02-04T04:51:20.801Z,2.87
2023-02-04T04:53:47.437Z,2.84
2023-02-04T04:56:14.096Z,2.80
2023-02-04T04:58:40.771Z,2.80
2023-02-04T05:01:07.512Z,2.77
2023-02-04T05:03:34.307Z,2.72
2023-02-04T05:06:00.958Z,2.71
2023-02-04T05:08:27.623Z,2.64
2023-02-04T05:10:54.256Z,2.58
2023-02-04T05:13:20.980Z,2.56
2023-02-04T05:15:47.604Z,2.53
2023-02-04T05:18:14.243Z,2.53
2023-02-04T05:20:40.877Z,2.52
2023-02-04T05:23:07.572Z,2.53
2023-02-04T05:25:34.289Z,2.57
2023-02-04T05:28:00.959Z,2.53
2023-02-04T05:30:27.662Z,2.53
2023-02-04T05:32:54.496Z,2.52
2023-02-04T05:35:21.178Z,2.54
2023-02-04T05:37:47.997Z,2.53
2023-02-04T05:40:14.671Z,2.52
2023-02-04T05:42:41.973Z,2.57
2023-02-04T05:45:16.518Z,2.63
2023-02-04T05:47:43.181Z,2.61
2023-02-04T05:50:10.240Z,2.64
2023-02-04T05:52:36.907Z,2.63
2023-02-04T05:55:04.360Z,2.57
2023-02-04T05:57:31.003Z,2.58
2023-02-04T05:59:57.662Z,2.52
2023-02-04T06:02:24.488Z,2.41
2023-02-04T06:04:51.823Z,2.37
2023-02-04T06:07:18.508Z,2.39
2023-02-04T06:09:45.330Z,2.41
2023-02-04T06:12:12.060Z,2.39
2023-02-04T06:14:38.677Z,2.40
2023-02-04T06:17:05.378Z,2.41
2023-02-04T06:19:32.084Z,2.40
2023-02-04T06:21:58.792Z,2.50
2023-02-04T06:24:25.434Z,2.55
2023-02-04T06:26:52.042Z,2.55
2023-02-04T06:29:18.734Z,2.50
2023-02-04T06:31:45.442Z,2.48
2023-02-04T06:34:12.281Z,2.47
2023-02-04T06:36:38.877Z,2.41
2023-02-04T06:39:05.534Z,2.38
2023-02-04T06:41:32.150Z,2.38
2023-02-04T06:43:58.804Z,2.39
2023-02-04T06:46:25.471Z,2.42
2023-02-04T06:48:52.173Z,2.41
2023-02-04T06:51:18.819Z,2.35
2023-02-04T06:53:46.086Z,2.35
2023-02-04T06:56:12.848Z,2.39
2023-02-04T06:58:39.628Z,2.37
2023-02-04T07:01:06.502Z,2.36
2023-02-04T07:03:33.273Z,2.36
2023-02-04T07:05:59.893Z,2.34
2023-02-04T07:08:26.639Z,2.36
2023-02-04T07:10:53.309Z,2.42
2023-02-04T07:13:19.960Z,2.51
2023-02-04T07:15:46.673Z,2.51
2023-02-04T07:18:13.338Z,2.49
2023-02-04T07:20:39.973Z,2.53
2023-02-04T07:23:06.616Z,2.53
2023-02-04T07:25:33.246Z,2.42
2023-02-04T07:28:01.840Z,2.46
2023-02-04T07:30:28.621Z,2.61
2023-02-04T07:32:55.339Z,2.70
2023-02-04T07:35:22.009Z,2.75
2023-02-04T07:37:48.638Z,2.86
2023-02-04T07:40:15.439Z,3.02
2023-02-04T07:42:42.228Z,3.25
2023-02-04T07:45:15.058Z,3.61
2023-02-04T07:47:41.753Z,4.17
2023-02-04T07:50:08.730Z,4.22
2023-02-04T07:52:35.418Z,4.03
2023-02-04T07:55:02.107Z,3.84
2023-02-04T07:57:30.100Z,3.70
2023-02-04T07:59:56.854Z,3.56
2023-02-04T08:02:23.746Z,3.44
2023-02-04T08:04:50.425Z,3.41
2023-02-04T08:07:17.081Z,3.39
2023-02-04T08:09:43.786Z,3.31
2023-02-04T08:12:10.522Z,3.22
2023-02-04T08:14:37.552Z,3.21
2023-02-04T08:17:04.286Z,3.21
2023-02-04T08:19:30.904Z,3.21
2023-02-04T08:21:57.526Z,3.16
2023-02-04T08:24:24.173Z,3.10
2023-02-04T08:26:51.826Z,3.17
2023-02-04T08:29:18.567Z,3.21
2023-02-04T08:31:45.285Z,3.26
2023-02-04T08:34:11.973Z,3.26
2023-02-04T08:36:38.634Z,3.27
2023-02-04T08:39:05.386Z,3.28
2023-02-04T08:41:33.575Z,3.31
2023-02-04T08:44:00.237Z,3.33
2023-02-04T08:46:26.978Z,3.36
2023-02-04T08:48:53.718Z,3.40
2023-02-04T08:51:20.438Z,3.44
2023-02-04T08:53:47.146Z,3.43
2023-02-04T08:56:17.964Z,3.47
2023-02-04T08:58:45.225Z,3.46
2023-02-04T09:01:12.438Z,3.49
2023-02-04T09:03:39.691Z,3.52
2023-02-04T09:06:07.458Z,3.52
2023-02-04T09:08:34.240Z,3.47
2023-02-04T09:11:00.913Z,3.42
2023-02-04T09:13:27.946Z,3.34
2023-02-04T09:15:54.594Z,3.39
2023-02-04T09:18:22.551Z,3.42
2023-02-04T09:20:49.663Z,3.41
2023-02-04T09:23:16.543Z,3.42
2023-02-04T09:25:45.225Z,3.40
2023-02-04T09:28:13.424Z,3.36
2023-02-04T09:30:41.140Z,3.49
2023-02-04T09:33:08.975Z,3.54
2023-02-04T09:35:35.646Z,3.60
2023-02-04T09:38:02.433Z,3.73
2023-02-04T09:40:34.749Z,4.02
2023-02-04T09:43:02.002Z,4.19
2023-02-04T09:45:32.694Z,4.23
2023-02-04T09:48:02.481Z,4.14
2023-02-04T09:50:34.574Z,4.02
2023-02-04T09:53:05.340Z,4.01
2023-02-04T09:55:38.338Z,4.02
2023-02-04T09:58:20.473Z,3.99
2023-02-04T10:00:58.259Z,4.08
2023-02-04T10:03:24.983Z,4.04
2023-02-04T10:05:51.803Z,4.00
2023-02-04T10:08:28.411Z,4.00
2023-02-04T10:10:57.840Z,4.06
2023-02-04T10:13:32.946Z,4.10
2023-02-04T10:16:00.943Z,4.05
2023-02-04T10:18:33.978Z,3.99
2023-02-04T10:21:14.809Z,3.96
2023-02-04T10:23:43.901Z,3.92
2023-02-04T10:26:12.476Z,3.91
2023-02-04T10:28:40.295Z,3.92
2023-02-04T10:31:26.552Z,3.94
2023-02-04T10:34:04.626Z,3.91
2023-02-04T10:36:31.573Z,3.86
2023-02-04T10:39:10.268Z,3.77
2023-02-04T10:41:41.315Z,3.77
2023-02-04T10:44:11.929Z,3.73
2023-02-04T10:46:38.890Z,3.88
2023-02-04T10:49:17.406Z,4.02
2023-02-04T10:51:44.043Z,4.12
2023-02-04T10:54:31.411Z,4.19
2023-02-04T10:57:22.479Z,4.25
2023-02-04T10:59:55.580Z,4.35
2023-02-04T11:02:22.213Z,4.50
2023-02-04T11:04:48.930Z,4.63
2023-02-04T11:07:15.611Z,4.62
2023-02-04T11:09:43.952Z,4.62
2023-02-04T11:12:36.011Z,4.62
2023-02-04T11:15:03.958Z,4.62
2023-02-04T11:17:32.785Z,4.81
2023-02-04T11:20:00.790Z,5.18
2023-02-04T11:22:43.279Z,5.07
2023-02-04T11:25:33.571Z,5.05
2023-02-04T11:28:00.814Z,4.89
2023-02-04T11:30:33.964Z,4.83
2023-02-04T11:33:06.562Z,5.07
2023-02-04T11:35:33.656Z,5.24
2023-02-04T11:38:00.564Z,5.33
2023-02-04T11:40:35.917Z,5.23
2023-02-04T11:43:14.933Z,5.01
2023-02-04T11:45:42.999Z,4.75
2023-02-04T11:48:15.607Z,4.47
2023-02-04T11:50:42.361Z,4.28
2023-02-04T11:53:12.049Z,4.07
2023-02-04T11:55:47.420Z,3.93
2023-02-04T11:58:17.224Z,3.76
2023-02-04T12:00:44.396Z,3.77
2023-02-04T12:03:22.193Z,3.78
2023-02-04T12:05:49.758Z,3.85
2023-02-04T12:08:22.637Z,3.86
2023-02-04T12:10:59.727Z,3.94
2023-02-04T12:13:29.621Z,4.03
2023-02-04T12:16:05.843Z,4.06
2023-02-04T12:18:34.543Z,4.27
2023-02-04T12:21:02.399Z,4.40
2023-02-04T12:23:30.108Z,4.56
2023-02-04T12:25:57.466Z,4.72
2023-02-04T12:28:25.036Z,5.00
2023-02-04T12:30:51.806Z,5.80
2023-02-04T12:33:18.645Z,6.32
2023-02-04T12:35:45.303Z,6.69
2023-02-04T12:38:12.007Z,6.42
2023-02-04T12:40:38.835Z,6.56
2023-02-04T12:43:06.023Z,6.46
2023-02-04T12:45:33.371Z,6.75
2023-02-04T12:48:00.688Z,7.23
2023-02-04T12:50:27.352Z,7.33
2023-02-04T12:52:56.544Z,7.24
2023-02-04T12:55:25.478Z,7.09
2023-02-04T12:57:52.785Z,7.09
2023-02-04T13:00:20.819Z,7.15
2023-02-04T13:02:48.351Z,7.21
2023-02-04T13:05:16.096Z,7.13
2023-02-04T13:07:42.955Z,7.02
2023-02-04T13:10:10.389Z,7.25
2023-02-04T13:12:37.501Z,7.23
2023-02-04T13:15:05.382Z,7.06
2023-02-04T13:17:32.036Z,6.98
2023-02-04T13:19:58.720Z,7.09
2023-02-04T13:22:25.390Z,7.22
2023-02-04T13:24:52.347Z,7.02
2023-02-04T13:27:19.116Z,6.65
2023-02-04T13:29:45.848Z,6.42
2023-02-04T13:32:12.538Z,6.22
2023-02-04T13:34:39.214Z,6.12
2023-02-04T13:37:06.090Z,6.24
2023-02-04T13:39:32.723Z,6.63
2023-02-04T13:41:59.352Z,6.69
2023-02-04T13:44:26.010Z,6.78
2023-02-04T13:46:52.653Z,6.79
2023-02-04T13:49:19.572Z,6.92
2023-02-04T13:51:46.228Z,7.07
2023-02-04T13:54:13.486Z,7.16
2023-02-04T13:56:41.214Z,7.39
2023-02-04T13:59:08.964Z,7.56
2023-02-04T14:01:35.596Z,7.34
2023-02-04T14:04:02.325Z,7.27
2023-02-04T14:06:33.867Z,7.46
2023-02-04T14:09:04.056Z,7.28
2023-02-04T14:11:30.830Z,7.25
2023-02-04T14:13:57.492Z,6.90
2023-02-04T14:16:24.239Z,6.52
2023-02-04T14:18:50.980Z,6.40
2023-02-04T14:21:17.904Z,6.33
2023-02-04T14:23:44.716Z,6.09
2023-02-04T14:26:11.686Z,5.78
2023-02-04T14:28:38.345Z,5.58
2023-02-04T14:31:05.427Z,5.37
2023-02-04T14:33:32.199Z,5.28
2023-02-04T14:35:58.845Z,5.11
2023-02-04T14:38:30.804Z,5.07
2023-02-04T14:40:58.588Z,5.13
2023-02-04T14:43:25.976Z,5.09
2023-02-04T14:45:53.060Z,5.07
2023-02-04T14:48:19.879Z,5.14
2023-02-04T14:50:46.499Z,5.10
2023-02-04T14:53:13.235Z,5.04
2023-02-04T14:55:39.845Z,5.02
2023-02-04T14:58:06.588Z,4.93
2023-02-04T15:00:33.559Z,4.87
2023-02-04T15:03:00.478Z,4.83
2023-02-04T15:05:27.120Z,4.66
2023-02-04T15:07:53.827Z,4.46
2023-02-04T15:10:21.292Z,4.33
2023-02-04T15:12:49.251Z,4.31
2023-02-04T15:15:16.023Z,4.29
2023-02-04T15:17:42.692Z,4.32
2023-02-04T15:20:09.926Z,4.36
2023-02-04T15:22:36.584Z,4.27
2023-02-04T15:25:03.415Z,4.19
2023-02-04T15:27:30.659Z,4.13
2023-02-04T15:29:57.317Z,4.06
2023-02-04T15:32:23.988Z,4.06
2023-02-04T15:34:50.620Z,4.05
2023-02-04T15:37:17.285Z,4.09
2023-02-04T15:39:43.945Z,4.08
2023-02-04T15:42:11.017Z,4.10
2023-02-04T15:44:38.015Z,4.07
2023-02-04T15:47:06.415Z,4.07
2023-02-04T15:49:33.913Z,3.99
2023-02-04T15:52:02.125Z,3.98
2023-02-04T15:54:28.884Z,3.89
2023-02-04T15:56:55.523Z,3.82
2023-02-04T15:59:22.203Z,3.79
2023-02-04T16:01:49.682Z,3.74
2023-02-04T16:04:16.536Z,3.75
2023-02-04T16:06:53.410Z,3.76
2023-02-04T16:09:23.727Z,3.67
2023-02-04T16:11:50.442Z,3.63
2023-02-04T16:14:17.161Z,3.62
2023-02-04T16:16:43.743Z,3.69
2023-02-04T16:19:10.455Z,3.66
2023-02-04T16:21:37.122Z,3.60
2023-02-04T16:24:03.985Z,3.57
2023-02-04T16:26:32.264Z,3.56
2023-02-04T16:28:59.008Z,3.54
2023-02-04T16:31:25.711Z,3.50
2023-02-04T16:33:52.467Z,3.50
2023-02-04T16:36:19.126Z,3.47
2023-02-04T16:38:45.894Z,3.42
2023-02-04T16:41:14.331Z,3.42
2023-02-04T16:43:41.170Z,3.40
2023-02-04T16:46:07.866Z,3.29
2023-02-04T16:48:36.442Z,3.25
2023-02-04T16:51:03.364Z,3.18
2023-02-04T16:53:30.035Z,3.21
2023-02-04T16:55:56.751Z,3.18
2023-02-04T16:58:23.639Z,3.16
2023-02-04T17:00:50.355Z,3.05
2023-02-04T17:03:17.091Z,3.01
2023-02-04T17:05:43.793Z,2.93
2023-02-04T17:08:13.494Z,2.88
2023-02-04T17:11:00.098Z,2.81
2023-02-04T17:13:26.814Z,2.71
2023-02-04T17:15:59.299Z,2.70
2023-02-04T17:18:30.542Z,2.66
2023-02-04T17:20:57.789Z,2.56
2023-02-04T17:23:26.982Z,2.52
2023-02-04T17:25:53.975Z,2.41
2023-02-04T17:28:20.771Z,2.34
2023-02-04T17:30:47.508Z,2.26
2023-02-04T17:33:14.130Z,2.26
2023-02-04T17:35:40.813Z,2.19
2023-02-04T17:38:07.471Z,2.24
2023-02-04T17:40:34.099Z,2.22
2023-02-04T17:43:00.811Z,2.33
2023-02-04T17:45:27.521Z,2.33
2023-02-04T17:47:54.161Z,2.39
2023-02-04T17:50:20.774Z,2.42
2023-02-04T17:52:47.451Z,2.44
2023-02-04T17:55:24.738Z,2.41
2023-02-04T17:57:51.598Z,2.36
2023-02-04T18:00:21.573Z,2.37
2023-02-04T18:02:50.815Z,2.39
2023-02-04T18:05:20.578Z,2.44
2023-02-04T18:07:56.650Z,2.46
2023-02-04T18:10:32.105Z,2.44
2023-02-04T18:13:04.257Z,2.47
2023-02-04T18:15:32.727Z,2.45
2023-02-04T18:18:14.804Z,2.40
2023-02-04T18:20:41.476Z,2.35
2023-02-04T18:23:15.693Z,2.38
2023-02-04T18:25:42.981Z,2.42
2023-02-04T18:28:21.204Z,2.45
2023-02-04T18:30:52.979Z,2.38
2023-02-04T18:33:25.989Z,2.39
2023-02-04T18:36:00.088Z,2.23
2023-02-04T18:38:30.252Z,2.13
2023-02-04T18:41:27.619Z,2.06
2023-02-04T18:44:02.649Z,1.99
2023-02-04T18:46:36.582Z,1.90
2023-02-04T18:49:06.841Z,1.90
2023-02-04T18:51:38.051Z,1.84
2023-02-04T18:54:25.282Z,1.87
2023-02-04T18:56:53.520Z,1.73
2023-02-04T18:59:21.425Z,1.68
2023-02-04T19:01:48.928Z,1.62
2023-02-04T19:04:24.051Z,1.66
2023-02-04T19:06:54.539Z,1.75
2023-02-04T19:09:32.680Z,1.83
2023-02-04T19:12:13.440Z,1.91
2023-02-04T19:14:42.741Z,1.92
2023-02-04T19:17:29.670Z,1.97
2023-02-04T19:20:02.920Z,2.00
2023-02-04T19:22:35.442Z,2.04
2023-02-04T19:25:37.039Z,2.01
2023-02-04T19:28:26.277Z,2.03
2023-02-04T19:31:00.648Z,2.01
2023-02-04T19:33:33.349Z,1.98
2023-02-04T19:36:19.113Z,1.91
2023-02-04T19:38:48.086Z,1.90
2023-02-04T19:41:28.568Z,1.92
2023-02-04T19:44:10.435Z,1.81
2023-02-04T19:46:37.046Z,1.67
2023-02-04T19:49:25.365Z,1.55
2023-02-04T19:51:55.024Z,1.60
2023-02-04T19:54:36.293Z,1.59
2023-02-04T19:57:18.376Z,1.53
2023-02-04T19:59:44.986Z,1.50
2023-02-04T20:02:33.797Z,1.46
2023-02-04T20:05:00.575Z,1.35
2023-02-04T20:07:29.488Z,1.41
2023-02-04T20:09:58.826Z,1.34
2023-02-04T20:12:28.956Z,1.22
2023-02-04T20:15:02.393Z,1.06
2023-02-04T20:17:45.925Z,0.99
2023-02-04T20:20:29.521Z,1.00
2023-02-04T20:23:25.918Z,0.91
2023-02-04T20:25:53.521Z,0.86
2023-02-04T20:28:36.938Z,0.90
2023-02-04T20:31:16.672Z,0.85
2023-02-04T20:33:53.639Z,0.90
2023-02-04T20:36:26.594Z,0.95
2023-02-04T20:39:16.027Z,1.01
2023-02-04T20:41:42.960Z,1.02
2023-02-04T20:44:16.683Z,1.03
2023-02-04T20:46:44.713Z,1.02
2023-02-04T20:49:25.559Z,1.14
2023-02-04T20:51:59.260Z,1.14
2023-02-04T20:54:30.165Z,1.02
2023-02-04T20:57:14.994Z,0.79
2023-02-04T20:59:42.867Z,0.67
2023-02-04T21:02:21.113Z,0.50
2023-02-04T21:04:53.702Z,0.41
2023-02-04T21:07:22.293Z,0.51
2023-02-04T21:09:49.320Z,0.53
2023-02-04T21:12:16.038Z,0.54
2023-02-04T21:14:43.077Z,0.57
2023-02-04T21:17:09.699Z,0.58
2023-02-04T21:19:37.010Z,0.55
2023-02-04T21:22:03.912Z,0.57
2023-02-04T21:24:31.944Z,0.63
2023-02-04T21:26:59.002Z,0.65
2023-02-04T21:29:26.190Z,0.65
2023-02-04T21:31:54.502Z,0.64
2023-02-04T21:34:21.597Z,0.74
2023-02-04T21:36:48.339Z,0.74
2023-02-04T21:39:15.504Z,0.66
2023-02-04T21:41:42.139Z,0.41
2023-02-04T21:44:08.786Z,0.29
2023-02-04T21:46:35.440Z,0.27
2023-02-04T21:49:03.954Z,0.25
2023-02-04T21:51:30.680Z,0.32
2023-02-04T21:53:57.940Z,0.54
2023-02-04T21:56:24.608Z,0.58
2023-02-04T21:58:52.660Z,0.61
2023-02-04T22:01:19.359Z,0.47
2023-02-04T22:03:46.331Z,0.45
2023-02-04T22:06:13.128Z,0.46
2023-02-04T22:08:39.929Z,0.48
2023-02-04T22:11:06.660Z,0.48
2023-02-04T22:13:33.317Z,0.47
2023-02-04T22:15:59.970Z,0.47
2023-02-04T22:18:27.113Z,0.41
2023-02-04T22:20:53.780Z,0.39
2023-02-04T22:23:20.535Z,0.30
2023-02-04T22:25:47.292Z,0.23
2023-02-04T22:28:13.955Z,0.22
2023-02-04T22:30:40.707Z,0.30
2023-02-04T22:33:07.580Z,0.29
2023-02-04T22:35:36.828Z,0.26
2023-02-04T22:38:03.944Z,0.21
2023-02-04T22:40:30.746Z,0.21
2023-02-04T22:42:57.375Z,0.23
2023-02-04T22:45:24.023Z,0.13
2023-02-04T22:47:50.678Z,0.12
2023-02-04T22:50:17.335Z,0.05
2023-02-04T22:52:44.076Z,0.06
2023-02-04T22:55:11.027Z,-0.06
2023-02-04T22:57:37.895Z,-0.04
2023-02-04T23:00:09.126Z,-0.02
2023-02-04T23:02:35.902Z,-0.07
2023-02-04T23:05:03.231Z,-0.01
2023-02-04T23:07:30.018Z,0.05
2023-02-04T23:09:56.703Z,0.09
2023-02-04T23:12:23.721Z,0.08
2023-02-04T23:14:50.416Z,0.12
2023-02-04T23:17:18.539Z,0.23
2023-02-04T23:19:45.261Z,0.28
2023-02-04T23:22:13.345Z,0.22
2023-02-04T23:24:40.858Z,0.08
2023-02-04T23:27:08.314Z,0.04
2023-02-04T23:29:37.891Z,-0.13
2023-02-04T23:32:04.672Z,-0.30
2023-02-04T23:34:32.484Z,-0.38
2023-02-04T23:36:59.156Z,-0.44
2023-02-04T23:39:25.891Z,-0.30
2023-02-04T23:41:52.783Z,-0.27
2023-02-04T23:44:19.504Z,-0.31
2023-02-04T23:46:46.159Z,-0.32
2023-02-04T23:49:12.851Z,-0.40
2023-02-04T23:51:39.984Z,-0.53
2023-02-04T23:54:07.362Z,-0.53
2023-02-04T23:56:34.476Z,-0.58
2023-02-04T23:59:01.476Z,-0.54
